sensor_id;sensor_type;location;lat;lon;timestamp;temperature;humidity
20866;DHT22;10593;48.398;10.698;2023-04-06T00:01:40;5.40;39.60
20866;DHT22;10593;48.398;10.698;2023-04-06T00:04:06;5.40;39.70
20866;DHT22;10593;48.398;10.698;2023-04-06T00:06:33;5.30;39.60
20866;DHT22;10593;48.398;10.698;2023-04-06T00:08:59;5.30;39.70
20866;DHT22;10593;48.398;10.698;2023-04-06T00:11:26;5.30;39.70
20866;DHT22;10593;48.398;10.698;2023-04-06T00:13:52;5.30;39.80
20866;DHT22;10593;48.398;10.698;2023-04-06T00:16:18;5.20;39.80
20866;DHT22;10593;48.398;10.698;2023-04-06T00:18:44;5.20;39.90
20866;DHT22;10593;48.398;10.698;2023-04-06T00:21:14;5.20;39.80
20866;DHT22;10593;48.398;10.698;2023-04-06T00:23:40;5.20;39.70
20866;DHT22;10593;48.398;10.698;2023-04-06T00:26:06;5.20;39.60
20866;DHT22;10593;48.398;10.698;2023-04-06T00:28:32;5.10;39.50
20866;DHT22;10593;48.398;10.698;2023-04-06T00:30:57;5.10;39.40
20866;DHT22;10593;48.398;10.698;2023-04-06T00:33:23;5.10;39.40
20866;DHT22;10593;48.398;10.698;2023-04-06T00:35:49;5.10;39.40
20866;DHT22;10593;48.398;10.698;2023-04-06T00:38:15;5.10;39.40
20866;DHT22;10593;48.398;10.698;2023-04-06T00:40:42;5.10;39.40
20866;DHT22;10593;48.398;10.698;2023-04-06T00:43:11;5.00;39.40
20866;DHT22;10593;48.398;10.698;2023-04-06T00:45:41;5.00;39.40
20866;DHT22;10593;48.398;10.698;2023-04-06T00:48:08;5.00;39.40
20866;DHT22;10593;48.398;10.698;2023-04-06T00:50:34;5.00;39.40
20866;DHT22;10593;48.398;10.698;2023-04-06T00:53:00;5.00;39.40
20866;DHT22;10593;48.398;10.698;2023-04-06T00:55:27;5.00;39.40
20866;DHT22;10593;48.398;10.698;2023-04-06T00:57:53;4.90;39.30
20866;DHT22;10593;48.398;10.698;2023-04-06T01:00:20;4.90;39.40
20866;DHT22;10593;48.398;10.698;2023-04-06T01:02:46;4.90;39.40
20866;DHT22;10593;48.398;10.698;2023-04-06T01:05:13;4.90;39.60
20866;DHT22;10593;48.398;10.698;2023-04-06T01:07:38;4.80;39.60
20866;DHT22;10593;48.398;10.698;2023-04-06T01:10:04;4.80;39.60
20866;DHT22;10593;48.398;10.698;2023-04-06T01:12:30;4.80;39.70
20866;DHT22;10593;48.398;10.698;2023-04-06T01:14:56;4.80;39.60
20866;DHT22;10593;48.398;10.698;2023-04-06T01:17:22;4.80;39.70
20866;DHT22;10593;48.398;10.698;2023-04-06T01:19:48;4.80;39.80
20866;DHT22;10593;48.398;10.698;2023-04-06T01:22:18;4.70;39.70
20866;DHT22;10593;48.398;10.698;2023-04-06T01:24:44;4.70;39.90
20866;DHT22;10593;48.398;10.698;2023-04-06T01:27:10;4.70;39.80
20866;DHT22;10593;48.398;10.698;2023-04-06T01:29:36;4.70;39.90
20866;DHT22;10593;48.398;10.698;2023-04-06T01:32:02;4.60;39.80
20866;DHT22;10593;48.398;10.698;2023-04-06T01:34:28;4.60;39.80
20866;DHT22;10593;48.398;10.698;2023-04-06T01:36:54;4.60;39.90
20866;DHT22;10593;48.398;10.698;2023-04-06T01:39:20;4.60;39.90
20866;DHT22;10593;48.398;10.698;2023-04-06T01:41:46;4.60;40.00
20866;DHT22;10593;48.398;10.698;2023-04-06T01:44:18;4.60;40.00
20866;DHT22;10593;48.398;10.698;2023-04-06T01:46:44;4.60;40.10
20866;DHT22;10593;48.398;10.698;2023-04-06T01:49:11;4.50;40.00
20866;DHT22;10593;48.398;10.698;2023-04-06T01:51:37;4.50;40.10
20866;DHT22;10593;48.398;10.698;2023-04-06T01:54:04;4.50;40.10
20866;DHT22;10593;48.398;10.698;2023-04-06T01:56:29;4.50;40.20
20866;DHT22;10593;48.398;10.698;2023-04-06T01:58:55;4.50;40.20
20866;DHT22;10593;48.398;10.698;2023-04-06T02:01:21;4.50;40.10
20866;DHT22;10593;48.398;10.698;2023-04-06T02:03:47;4.50;40.10
20866;DHT22;10593;48.398;10.698;2023-04-06T02:06:13;4.50;40.10
20866;DHT22;10593;48.398;10.698;2023-04-06T02:08:38;4.40;40.00
20866;DHT22;10593;48.398;10.698;2023-04-06T02:11:04;4.40;40.10
20866;DHT22;10593;48.398;10.698;2023-04-06T02:13:30;4.40;40.10
20866;DHT22;10593;48.398;10.698;2023-04-06T02:15:56;4.40;40.20
20866;DHT22;10593;48.398;10.698;2023-04-06T02:18:22;4.40;40.30
20866;DHT22;10593;48.398;10.698;2023-04-06T02:20:48;4.30;40.30
20866;DHT22;10593;48.398;10.698;2023-04-06T02:23:14;4.30;40.30
20866;DHT22;10593;48.398;10.698;2023-04-06T02:25:40;4.30;40.40
20866;DHT22;10593;48.398;10.698;2023-04-06T02:28:06;4.30;40.40
20866;DHT22;10593;48.398;10.698;2023-04-06T02:30:31;4.20;40.30
20866;DHT22;10593;48.398;10.698;2023-04-06T02:32:59;4.20;40.30
20866;DHT22;10593;48.398;10.698;2023-04-06T02:35:25;4.20;40.40
20866;DHT22;10593;48.398;10.698;2023-04-06T02:37:52;4.20;40.50
20866;DHT22;10593;48.398;10.698;2023-04-06T02:40:18;4.10;40.50
20866;DHT22;10593;48.398;10.698;2023-04-06T02:42:44;4.10;40.60
20866;DHT22;10593;48.398;10.698;2023-04-06T02:45:09;4.10;40.70
20866;DHT22;10593;48.398;10.698;2023-04-06T02:47:35;4.10;40.70
20866;DHT22;10593;48.398;10.698;2023-04-06T02:50:01;4.10;40.70
20866;DHT22;10593;48.398;10.698;2023-04-06T02:52:27;4.00;40.60
20866;DHT22;10593;48.398;10.698;2023-04-06T02:54:52;4.00;40.60
20866;DHT22;10593;48.398;10.698;2023-04-06T02:57:18;4.00;40.80
20866;DHT22;10593;48.398;10.698;2023-04-06T02:59:43;4.00;40.90
20866;DHT22;10593;48.398;10.698;2023-04-06T03:02:09;4.00;40.90
20866;DHT22;10593;48.398;10.698;2023-04-06T03:04:35;4.00;40.90
20866;DHT22;10593;48.398;10.698;2023-04-06T03:07:01;3.90;41.00
20866;DHT22;10593;48.398;10.698;2023-04-06T03:09:26;3.90;40.90
20866;DHT22;10593;48.398;10.698;2023-04-06T03:11:52;3.90;41.00
20866;DHT22;10593;48.398;10.698;2023-04-06T03:14:18;3.90;41.00
20866;DHT22;10593;48.398;10.698;2023-04-06T03:16:47;3.90;41.00
20866;DHT22;10593;48.398;10.698;2023-04-06T03:19:14;3.90;41.00
20866;DHT22;10593;48.398;10.698;2023-04-06T03:21:40;3.80;41.00
20866;DHT22;10593;48.398;10.698;2023-04-06T03:24:06;3.80;41.00
20866;DHT22;10593;48.398;10.698;2023-04-06T03:26:32;3.80;41.00
20866;DHT22;10593;48.398;10.698;2023-04-06T03:28:58;3.80;41.10
20866;DHT22;10593;48.398;10.698;2023-04-06T03:31:24;3.80;41.10
20866;DHT22;10593;48.398;10.698;2023-04-06T03:33:49;3.80;41.10
20866;DHT22;10593;48.398;10.698;2023-04-06T03:36:15;3.70;41.10
20866;DHT22;10593;48.398;10.698;2023-04-06T03:38:41;3.70;41.10
20866;DHT22;10593;48.398;10.698;2023-04-06T03:41:06;3.70;41.20
20866;DHT22;10593;48.398;10.698;2023-04-06T03:43:32;3.70;41.20
20866;DHT22;10593;48.398;10.698;2023-04-06T03:45:58;3.70;41.40
20866;DHT22;10593;48.398;10.698;2023-04-06T03:48:23;3.70;41.50
20866;DHT22;10593;48.398;10.698;2023-04-06T03:50:49;3.60;41.50
20866;DHT22;10593;48.398;10.698;2023-04-06T03:53:14;3.60;41.50
20866;DHT22;10593;48.398;10.698;2023-04-06T03:55:40;3.60;41.60
20866;DHT22;10593;48.398;10.698;2023-04-06T03:58:06;3.60;41.60
20866;DHT22;10593;48.398;10.698;2023-04-06T04:00:32;3.60;41.70
20866;DHT22;10593;48.398;10.698;2023-04-06T04:02:58;3.60;41.60
20866;DHT22;10593;48.398;10.698;2023-04-06T04:05:24;3.60;41.70
20866;DHT22;10593;48.398;10.698;2023-04-06T04:07:51;3.50;41.60
20866;DHT22;10593;48.398;10.698;2023-04-06T04:10:17;3.50;41.60
20866;DHT22;10593;48.398;10.698;2023-04-06T04:12:43;3.50;41.60
20866;DHT22;10593;48.398;10.698;2023-04-06T04:15:09;3.50;41.60
20866;DHT22;10593;48.398;10.698;2023-04-06T04:17:34;3.50;41.60
20866;DHT22;10593;48.398;10.698;2023-04-06T04:20:00;3.50;41.60
20866;DHT22;10593;48.398;10.698;2023-04-06T04:22:25;3.50;41.70
20866;DHT22;10593;48.398;10.698;2023-04-06T04:24:53;3.50;41.80
20866;DHT22;10593;48.398;10.698;2023-04-06T04:27:18;3.40;41.70
20866;DHT22;10593;48.398;10.698;2023-04-06T04:29:44;3.50;41.80
20866;DHT22;10593;48.398;10.698;2023-04-06T04:32:10;3.40;41.80
20866;DHT22;10593;48.398;10.698;2023-04-06T04:34:36;3.40;41.80
20866;DHT22;10593;48.398;10.698;2023-04-06T04:37:05;3.40;42.40
20866;DHT22;10593;48.398;10.698;2023-04-06T04:39:31;3.40;41.90
20866;DHT22;10593;48.398;10.698;2023-04-06T04:41:57;3.40;42.50
20866;DHT22;10593;48.398;10.698;2023-04-06T04:44:23;3.40;42.00
20866;DHT22;10593;48.398;10.698;2023-04-06T04:46:48;3.40;41.90
20866;DHT22;10593;48.398;10.698;2023-04-06T04:49:14;3.40;41.90
20866;DHT22;10593;48.398;10.698;2023-04-06T04:51:40;3.40;41.90
20866;DHT22;10593;48.398;10.698;2023-04-06T04:54:05;3.30;41.80
20866;DHT22;10593;48.398;10.698;2023-04-06T04:56:31;3.30;41.80
20866;DHT22;10593;48.398;10.698;2023-04-06T04:58:56;3.30;41.80
20866;DHT22;10593;48.398;10.698;2023-04-06T05:01:22;3.30;41.80
20866;DHT22;10593;48.398;10.698;2023-04-06T05:03:48;3.30;41.80
20866;DHT22;10593;48.398;10.698;2023-04-06T05:06:13;3.30;41.90
20866;DHT22;10593;48.398;10.698;2023-04-06T05:08:41;3.20;42.00
20866;DHT22;10593;48.398;10.698;2023-04-06T05:11:07;3.20;42.00
20866;DHT22;10593;48.398;10.698;2023-04-06T05:13:33;3.30;42.10
20866;DHT22;10593;48.398;10.698;2023-04-06T05:15:58;3.20;42.20
20866;DHT22;10593;48.398;10.698;2023-04-06T05:18:25;3.20;42.30
20866;DHT22;10593;48.398;10.698;2023-04-06T05:20:51;3.20;42.30
20866;DHT22;10593;48.398;10.698;2023-04-06T05:23:17;3.20;42.30
20866;DHT22;10593;48.398;10.698;2023-04-06T05:25:42;3.20;42.30
20866;DHT22;10593;48.398;10.698;2023-04-06T05:28:08;3.20;42.40
20866;DHT22;10593;48.398;10.698;2023-04-06T05:30:34;3.20;42.50
20866;DHT22;10593;48.398;10.698;2023-04-06T05:33:01;3.20;42.70
20866;DHT22;10593;48.398;10.698;2023-04-06T05:35:26;3.20;42.80
20866;DHT22;10593;48.398;10.698;2023-04-06T05:37:52;3.20;42.90
20866;DHT22;10593;48.398;10.698;2023-04-06T05:40:18;3.20;42.90
20866;DHT22;10593;48.398;10.698;2023-04-06T05:42:43;3.20;43.00
20866;DHT22;10593;48.398;10.698;2023-04-06T05:45:11;3.30;43.10
20866;DHT22;10593;48.398;10.698;2023-04-06T05:47:42;3.30;43.10
20866;DHT22;10593;48.398;10.698;2023-04-06T05:50:10;3.30;43.20
20866;DHT22;10593;48.398;10.698;2023-04-06T05:52:36;3.40;43.60
20866;DHT22;10593;48.398;10.698;2023-04-06T05:55:02;3.50;43.70
20866;DHT22;10593;48.398;10.698;2023-04-06T05:57:29;3.60;43.70
20866;DHT22;10593;48.398;10.698;2023-04-06T05:59:55;3.70;43.80
20866;DHT22;10593;48.398;10.698;2023-04-06T06:02:21;3.90;44.00
20866;DHT22;10593;48.398;10.698;2023-04-06T06:04:47;4.00;44.00
20866;DHT22;10593;48.398;10.698;2023-04-06T06:07:14;4.20;44.20
20866;DHT22;10593;48.398;10.698;2023-04-06T06:09:39;4.30;44.30
20866;DHT22;10593;48.398;10.698;2023-04-06T06:12:05;4.50;44.40
20866;DHT22;10593;48.398;10.698;2023-04-06T06:14:31;4.80;44.60
20866;DHT22;10593;48.398;10.698;2023-04-06T06:16:57;5.00;44.40
20866;DHT22;10593;48.398;10.698;2023-04-06T06:19:23;5.40;44.30
20866;DHT22;10593;48.398;10.698;2023-04-06T06:21:48;5.60;44.20
20866;DHT22;10593;48.398;10.698;2023-04-06T06:24:14;5.90;44.20
20866;DHT22;10593;48.398;10.698;2023-04-06T06:26:39;6.20;44.00
20866;DHT22;10593;48.398;10.698;2023-04-06T06:29:06;6.50;43.70
20866;DHT22;10593;48.398;10.698;2023-04-06T06:31:32;6.70;43.30
20866;DHT22;10593;48.398;10.698;2023-04-06T06:33:58;7.00;43.00
20866;DHT22;10593;48.398;10.698;2023-04-06T06:36:25;7.20;42.70
20866;DHT22;10593;48.398;10.698;2023-04-06T06:38:51;7.50;42.30
20866;DHT22;10593;48.398;10.698;2023-04-06T06:41:17;7.80;42.20
20866;DHT22;10593;48.398;10.698;2023-04-06T06:43:42;8.00;42.80
20866;DHT22;10593;48.398;10.698;2023-04-06T06:46:08;8.20;42.00
20866;DHT22;10593;48.398;10.698;2023-04-06T06:48:34;8.50;41.60
20866;DHT22;10593;48.398;10.698;2023-04-06T06:51:00;8.70;40.90
20866;DHT22;10593;48.398;10.698;2023-04-06T06:53:25;8.90;40.50
20866;DHT22;10593;48.398;10.698;2023-04-06T06:55:51;9.00;40.10
20866;DHT22;10593;48.398;10.698;2023-04-06T06:58:20;9.20;39.70
20866;DHT22;10593;48.398;10.698;2023-04-06T07:00:46;9.30;39.30
20866;DHT22;10593;48.398;10.698;2023-04-06T07:03:12;9.30;39.20
20866;DHT22;10593;48.398;10.698;2023-04-06T07:05:38;9.30;39.40
20866;DHT22;10593;48.398;10.698;2023-04-06T07:08:04;9.30;39.10
20866;DHT22;10593;48.398;10.698;2023-04-06T07:10:30;9.30;39.30
20866;DHT22;10593;48.398;10.698;2023-04-06T07:12:56;9.20;39.20
20866;DHT22;10593;48.398;10.698;2023-04-06T07:15:22;9.10;39.20
20866;DHT22;10593;48.398;10.698;2023-04-06T07:17:48;9.10;39.30
20866;DHT22;10593;48.398;10.698;2023-04-06T07:20:14;9.00;39.40
20866;DHT22;10593;48.398;10.698;2023-04-06T07:22:42;9.00;39.50
20866;DHT22;10593;48.398;10.698;2023-04-06T07:25:09;8.90;39.90
20866;DHT22;10593;48.398;10.698;2023-04-06T07:27:35;8.90;39.50
20866;DHT22;10593;48.398;10.698;2023-04-06T07:30:01;8.90;39.80
20866;DHT22;10593;48.398;10.698;2023-04-06T07:32:27;8.80;40.00
20866;DHT22;10593;48.398;10.698;2023-04-06T07:34:52;8.80;39.90
20866;DHT22;10593;48.398;10.698;2023-04-06T07:37:18;8.80;40.00
20866;DHT22;10593;48.398;10.698;2023-04-06T07:39:43;8.70;40.00
20866;DHT22;10593;48.398;10.698;2023-04-06T07:42:09;8.80;40.40
20866;DHT22;10593;48.398;10.698;2023-04-06T07:44:35;8.70;40.80
20866;DHT22;10593;48.398;10.698;2023-04-06T07:47:00;8.70;40.90
20866;DHT22;10593;48.398;10.698;2023-04-06T07:49:26;8.70;40.90
20866;DHT22;10593;48.398;10.698;2023-04-06T07:51:52;8.70;40.80
20866;DHT22;10593;48.398;10.698;2023-04-06T07:54:18;8.70;40.90
20866;DHT22;10593;48.398;10.698;2023-04-06T07:56:43;8.70;40.90
20866;DHT22;10593;48.398;10.698;2023-04-06T07:59:09;8.70;40.80
20866;DHT22;10593;48.398;10.698;2023-04-06T08:01:36;8.80;40.60
20866;DHT22;10593;48.398;10.698;2023-04-06T08:04:02;8.80;40.40
20866;DHT22;10593;48.398;10.698;2023-04-06T08:06:28;8.80;40.60
20866;DHT22;10593;48.398;10.698;2023-04-06T08:08:54;8.80;40.50
20866;DHT22;10593;48.398;10.698;2023-04-06T08:11:19;8.80;40.60
20866;DHT22;10593;48.398;10.698;2023-04-06T08:13:46;8.80;40.60
20866;DHT22;10593;48.398;10.698;2023-04-06T08:16:11;8.80;40.70
20866;DHT22;10593;48.398;10.698;2023-04-06T08:18:37;8.90;40.50
20866;DHT22;10593;48.398;10.698;2023-04-06T08:21:03;8.90;40.60
20866;DHT22;10593;48.398;10.698;2023-04-06T08:23:28;8.90;40.40
20866;DHT22;10593;48.398;10.698;2023-04-06T08:25:54;8.90;40.30
20866;DHT22;10593;48.398;10.698;2023-04-06T08:28:21;8.90;40.20
20866;DHT22;10593;48.398;10.698;2023-04-06T08:30:47;9.00;40.40
20866;DHT22;10593;48.398;10.698;2023-04-06T08:33:12;9.00;40.30
20866;DHT22;10593;48.398;10.698;2023-04-06T08:35:38;9.00;40.10
20866;DHT22;10593;48.398;10.698;2023-04-06T08:38:04;9.10;40.20
20866;DHT22;10593;48.398;10.698;2023-04-06T08:40:38;9.10;40.10
20866;DHT22;10593;48.398;10.698;2023-04-06T08:43:11;9.10;40.00
20866;DHT22;10593;48.398;10.698;2023-04-06T08:45:40;9.10;40.10
20866;DHT22;10593;48.398;10.698;2023-04-06T08:48:06;9.20;40.30
20866;DHT22;10593;48.398;10.698;2023-04-06T08:50:35;9.20;40.00
20866;DHT22;10593;48.398;10.698;2023-04-06T08:53:01;9.30;40.10
20866;DHT22;10593;48.398;10.698;2023-04-06T08:55:27;9.30;40.40
20866;DHT22;10593;48.398;10.698;2023-04-06T08:57:54;9.30;40.30
20866;DHT22;10593;48.398;10.698;2023-04-06T09:00:21;9.30;40.10
20866;DHT22;10593;48.398;10.698;2023-04-06T09:02:49;9.40;40.00
20866;DHT22;10593;48.398;10.698;2023-04-06T09:05:15;9.40;39.90
20866;DHT22;10593;48.398;10.698;2023-04-06T09:07:41;9.40;40.00
20866;DHT22;10593;48.398;10.698;2023-04-06T09:10:08;9.40;39.90
20866;DHT22;10593;48.398;10.698;2023-04-06T09:12:34;9.40;40.00
20866;DHT22;10593;48.398;10.698;2023-04-06T09:15:01;9.50;39.70
20866;DHT22;10593;48.398;10.698;2023-04-06T09:17:29;9.50;39.60
20866;DHT22;10593;48.398;10.698;2023-04-06T09:19:59;9.50;39.70
20866;DHT22;10593;48.398;10.698;2023-04-06T09:22:38;9.50;39.60
20866;DHT22;10593;48.398;10.698;2023-04-06T09:25:05;9.50;39.20
20866;DHT22;10593;48.398;10.698;2023-04-06T09:27:35;9.50;38.90
20866;DHT22;10593;48.398;10.698;2023-04-06T09:30:06;9.60;38.60
20866;DHT22;10593;48.398;10.698;2023-04-06T09:32:48;9.60;38.80
20866;DHT22;10593;48.398;10.698;2023-04-06T09:35:18;9.60;38.60
20866;DHT22;10593;48.398;10.698;2023-04-06T09:37:46;9.60;39.00
20866;DHT22;10593;48.398;10.698;2023-04-06T09:40:13;9.60;38.80
20866;DHT22;10593;48.398;10.698;2023-04-06T09:42:44;9.60;38.40
20866;DHT22;10593;48.398;10.698;2023-04-06T09:45:12;9.70;38.10
20866;DHT22;10593;48.398;10.698;2023-04-06T09:47:40;9.70;38.10
20866;DHT22;10593;48.398;10.698;2023-04-06T09:50:10;9.70;37.90
20866;DHT22;10593;48.398;10.698;2023-04-06T09:55:30;9.80;37.00
20866;DHT22;10593;48.398;10.698;2023-04-06T09:58:04;9.80;37.20
20866;DHT22;10593;48.398;10.698;2023-04-06T10:01:12;9.90;37.30
20866;DHT22;10593;48.398;10.698;2023-04-06T10:03:47;9.90;37.40
20866;DHT22;10593;48.398;10.698;2023-04-06T10:06:22;10.00;37.20
20866;DHT22;10593;48.398;10.698;2023-04-06T10:08:51;10.00;37.20
20866;DHT22;10593;48.398;10.698;2023-04-06T10:11:20;10.00;36.70
20866;DHT22;10593;48.398;10.698;2023-04-06T10:13:48;10.10;36.40
20866;DHT22;10593;48.398;10.698;2023-04-06T10:16:15;10.10;36.10
20866;DHT22;10593;48.398;10.698;2023-04-06T10:18:46;10.10;36.20
20866;DHT22;10593;48.398;10.698;2023-04-06T10:21:21;10.20;36.30
20866;DHT22;10593;48.398;10.698;2023-04-06T10:23:58;10.20;36.00
20866;DHT22;10593;48.398;10.698;2023-04-06T10:26:24;10.20;36.10
20866;DHT22;10593;48.398;10.698;2023-04-06T10:28:51;10.20;36.00
20866;DHT22;10593;48.398;10.698;2023-04-06T10:31:25;10.20;35.80
20866;DHT22;10593;48.398;10.698;2023-04-06T10:34:00;10.30;35.30
20866;DHT22;10593;48.398;10.698;2023-04-06T10:36:28;10.30;35.40
20866;DHT22;10593;48.398;10.698;2023-04-06T10:38:59;10.30;35.30
20866;DHT22;10593;48.398;10.698;2023-04-06T10:41:41;10.30;35.30
20866;DHT22;10593;48.398;10.698;2023-04-06T10:44:07;10.40;35.50
20866;DHT22;10593;48.398;10.698;2023-04-06T10:46:55;10.40;35.90
20866;DHT22;10593;48.398;10.698;2023-04-06T10:49:22;10.40;35.30
20866;DHT22;10593;48.398;10.698;2023-04-06T10:51:56;10.40;35.10
20866;DHT22;10593;48.398;10.698;2023-04-06T10:54:24;10.50;34.80
20866;DHT22;10593;48.398;10.698;2023-04-06T10:56:51;10.50;35.10
20866;DHT22;10593;48.398;10.698;2023-04-06T10:59:20;10.60;35.50
20866;DHT22;10593;48.398;10.698;2023-04-06T11:01:47;10.60;35.30
20866;DHT22;10593;48.398;10.698;2023-04-06T11:04:19;10.60;35.10
20866;DHT22;10593;48.398;10.698;2023-04-06T11:06:47;10.70;34.50
20866;DHT22;10593;48.398;10.698;2023-04-06T11:09:26;10.70;34.50
20866;DHT22;10593;48.398;10.698;2023-04-06T11:11:53;10.70;34.50
20866;DHT22;10593;48.398;10.698;2023-04-06T11:14:21;10.80;34.70
20866;DHT22;10593;48.398;10.698;2023-04-06T11:16:47;10.80;34.60
20866;DHT22;10593;48.398;10.698;2023-04-06T11:19:15;10.80;34.60
20866;DHT22;10593;48.398;10.698;2023-04-06T11:21:46;10.80;34.40
20866;DHT22;10593;48.398;10.698;2023-04-06T11:24:15;10.80;33.80
20866;DHT22;10593;48.398;10.698;2023-04-06T11:26:48;10.80;33.90
20866;DHT22;10593;48.398;10.698;2023-04-06T11:29:20;10.80;34.00
20866;DHT22;10593;48.398;10.698;2023-04-06T11:32:01;10.80;34.20
20866;DHT22;10593;48.398;10.698;2023-04-06T11:34:29;10.80;34.10
20866;DHT22;10593;48.398;10.698;2023-04-06T11:36:58;10.80;34.20
20866;DHT22;10593;48.398;10.698;2023-04-06T11:39:26;10.70;33.90
20866;DHT22;10593;48.398;10.698;2023-04-06T11:41:54;10.70;34.40
20866;DHT22;10593;48.398;10.698;2023-04-06T11:46:58;10.70;33.50
20866;DHT22;10593;48.398;10.698;2023-04-06T11:49:31;10.70;33.70
20866;DHT22;10593;48.398;10.698;2023-04-06T11:51:59;10.70;33.50
20866;DHT22;10593;48.398;10.698;2023-04-06T11:54:34;10.70;33.70
20866;DHT22;10593;48.398;10.698;2023-04-06T11:57:03;10.70;33.80
20866;DHT22;10593;48.398;10.698;2023-04-06T11:59:33;10.70;34.00
20866;DHT22;10593;48.398;10.698;2023-04-06T12:02:01;10.70;33.80
20866;DHT22;10593;48.398;10.698;2023-04-06T12:04:28;10.80;33.70
20866;DHT22;10593;48.398;10.698;2023-04-06T12:06:54;10.80;33.30
20866;DHT22;10593;48.398;10.698;2023-04-06T12:09:20;10.80;33.10
20866;DHT22;10593;48.398;10.698;2023-04-06T12:11:46;10.80;32.80
20866;DHT22;10593;48.398;10.698;2023-04-06T12:14:12;10.90;32.60
20866;DHT22;10593;48.398;10.698;2023-04-06T12:16:38;10.90;32.50
20866;DHT22;10593;48.398;10.698;2023-04-06T12:19:05;10.90;32.50
20866;DHT22;10593;48.398;10.698;2023-04-06T12:21:32;10.90;32.90
20866;DHT22;10593;48.398;10.698;2023-04-06T12:23:59;11.00;32.70
20866;DHT22;10593;48.398;10.698;2023-04-06T12:26:26;11.00;32.40
20866;DHT22;10593;48.398;10.698;2023-04-06T12:28:53;11.10;32.40
20866;DHT22;10593;48.398;10.698;2023-04-06T12:31:21;11.10;32.40
20866;DHT22;10593;48.398;10.698;2023-04-06T12:33:49;11.20;32.90
20866;DHT22;10593;48.398;10.698;2023-04-06T12:36:17;11.20;33.10
20866;DHT22;10593;48.398;10.698;2023-04-06T12:38:45;11.30;33.00
20866;DHT22;10593;48.398;10.698;2023-04-06T12:41:12;11.30;32.90
20866;DHT22;10593;48.398;10.698;2023-04-06T12:43:42;11.40;32.90
20866;DHT22;10593;48.398;10.698;2023-04-06T12:46:09;11.40;32.40
20866;DHT22;10593;48.398;10.698;2023-04-06T12:48:36;11.40;31.90
20866;DHT22;10593;48.398;10.698;2023-04-06T12:51:04;11.40;32.00
20866;DHT22;10593;48.398;10.698;2023-04-06T12:53:31;11.50;32.20
20866;DHT22;10593;48.398;10.698;2023-04-06T12:55:58;11.50;31.90
20866;DHT22;10593;48.398;10.698;2023-04-06T12:58:25;11.50;32.00
20866;DHT22;10593;48.398;10.698;2023-04-06T13:00:52;11.50;32.20
20866;DHT22;10593;48.398;10.698;2023-04-06T13:03:19;11.60;32.70
20866;DHT22;10593;48.398;10.698;2023-04-06T13:05:50;11.60;32.40
20866;DHT22;10593;48.398;10.698;2023-04-06T13:08:17;11.60;31.70
20866;DHT22;10593;48.398;10.698;2023-04-06T13:10:47;11.60;31.40
20866;DHT22;10593;48.398;10.698;2023-04-06T13:13:17;11.70;31.10
20866;DHT22;10593;48.398;10.698;2023-04-06T13:15:48;11.70;31.00
20866;DHT22;10593;48.398;10.698;2023-04-06T13:18:13;11.70;31.00
20866;DHT22;10593;48.398;10.698;2023-04-06T13:20:39;11.80;31.20
20866;DHT22;10593;48.398;10.698;2023-04-06T13:23:05;11.80;31.40
20866;DHT22;10593;48.398;10.698;2023-04-06T13:25:32;11.80;31.30
20866;DHT22;10593;48.398;10.698;2023-04-06T13:27:58;11.80;31.20
20866;DHT22;10593;48.398;10.698;2023-04-06T13:30:24;11.80;31.30
20866;DHT22;10593;48.398;10.698;2023-04-06T13:32:50;11.90;31.30
20866;DHT22;10593;48.398;10.698;2023-04-06T13:35:16;11.90;31.40
20866;DHT22;10593;48.398;10.698;2023-04-06T13:37:42;11.90;31.30
20866;DHT22;10593;48.398;10.698;2023-04-06T13:40:08;12.00;31.20
20866;DHT22;10593;48.398;10.698;2023-04-06T13:42:34;12.00;30.70
20866;DHT22;10593;48.398;10.698;2023-04-06T13:45:07;12.00;30.80
20866;DHT22;10593;48.398;10.698;2023-04-06T13:47:33;12.00;30.80
20866;DHT22;10593;48.398;10.698;2023-04-06T13:49:59;12.00;30.80
20866;DHT22;10593;48.398;10.698;2023-04-06T13:52:25;12.00;30.70
20866;DHT22;10593;48.398;10.698;2023-04-06T13:54:52;12.00;30.30
20866;DHT22;10593;48.398;10.698;2023-04-06T13:57:18;12.00;30.50
20866;DHT22;10593;48.398;10.698;2023-04-06T13:59:43;12.00;30.80
20866;DHT22;10593;48.398;10.698;2023-04-06T14:02:10;12.00;30.90
20866;DHT22;10593;48.398;10.698;2023-04-06T14:04:36;12.00;30.80
20866;DHT22;10593;48.398;10.698;2023-04-06T14:07:03;12.00;30.80
20866;DHT22;10593;48.398;10.698;2023-04-06T14:09:29;12.10;30.90
20866;DHT22;10593;48.398;10.698;2023-04-06T14:11:56;12.10;30.50
20866;DHT22;10593;48.398;10.698;2023-04-06T14:14:22;12.10;30.20
20866;DHT22;10593;48.398;10.698;2023-04-06T14:16:48;12.10;30.30
20866;DHT22;10593;48.398;10.698;2023-04-06T14:19:15;12.10;30.30
20866;DHT22;10593;48.398;10.698;2023-04-06T14:21:45;12.10;30.30
20866;DHT22;10593;48.398;10.698;2023-04-06T14:24:11;12.10;30.30
20866;DHT22;10593;48.398;10.698;2023-04-06T14:26:39;12.20;30.20
20866;DHT22;10593;48.398;10.698;2023-04-06T14:29:07;12.20;30.40
20866;DHT22;10593;48.398;10.698;2023-04-06T14:31:33;12.20;30.40
20866;DHT22;10593;48.398;10.698;2023-04-06T14:34:01;12.30;30.60
20866;DHT22;10593;48.398;10.698;2023-04-06T14:36:28;12.30;30.40
20866;DHT22;10593;48.398;10.698;2023-04-06T14:39:02;12.30;30.00
20866;DHT22;10593;48.398;10.698;2023-04-06T14:41:32;12.30;30.20
20866;DHT22;10593;48.398;10.698;2023-04-06T14:43:59;12.40;30.20
20866;DHT22;10593;48.398;10.698;2023-04-06T14:46:25;12.40;30.80
20866;DHT22;10593;48.398;10.698;2023-04-06T14:48:55;12.40;30.00
20866;DHT22;10593;48.398;10.698;2023-04-06T14:51:27;12.40;29.80
20866;DHT22;10593;48.398;10.698;2023-04-06T14:53:53;12.40;29.80
20866;DHT22;10593;48.398;10.698;2023-04-06T14:56:23;12.50;30.00
20866;DHT22;10593;48.398;10.698;2023-04-06T14:58:50;12.50;29.80
20866;DHT22;10593;48.398;10.698;2023-04-06T15:01:18;12.50;29.70
20866;DHT22;10593;48.398;10.698;2023-04-06T15:03:44;12.50;29.80
20866;DHT22;10593;48.398;10.698;2023-04-06T15:06:14;12.50;29.90
20866;DHT22;10593;48.398;10.698;2023-04-06T15:08:41;12.60;29.90
20866;DHT22;10593;48.398;10.698;2023-04-06T15:11:08;12.60;30.00
20866;DHT22;10593;48.398;10.698;2023-04-06T15:13:34;12.60;30.00
20866;DHT22;10593;48.398;10.698;2023-04-06T15:15:59;12.60;30.00
20866;DHT22;10593;48.398;10.698;2023-04-06T15:18:25;12.60;29.90
20866;DHT22;10593;48.398;10.698;2023-04-06T15:20:51;12.70;29.80
20866;DHT22;10593;48.398;10.698;2023-04-06T15:23:17;12.70;29.90
20866;DHT22;10593;48.398;10.698;2023-04-06T15:25:43;12.70;29.90
20866;DHT22;10593;48.398;10.698;2023-04-06T15:28:09;12.70;29.80
20866;DHT22;10593;48.398;10.698;2023-04-06T15:30:35;12.70;29.30